sensor_id;sensor_type;location;lat;lon;timestamp;P1;durP1;ratioP1;P2;durP2;ratioP2
15667;SDS011;7934;48.710;9.024;2023-05-10T00:00:43;5.37;;;1.30;;
15667;SDS011;7934;48.710;9.024;2023-05-10T00:03:11;1.47;;;0.90;;
15667;SDS011;7934;48.710;9.024;2023-05-10T00:05:38;2.67;;;0.90;;
15667;SDS011;7934;48.710;9.024;2023-05-10T00:08:05;1.50;;;0.60;;
15667;SDS011;7934;48.710;9.024;2023-05-10T00:10:33;2.63;;;0.43;;
15667;SDS011;7934;48.710;9.024;2023-05-10T00:13:00;1.47;;;0.40;;
15667;SDS011;7934;48.710;9.024;2023-05-10T00:15:29;1.60;;;0.67;;
15667;SDS011;7934;48.710;9.024;2023-05-10T00:17:56;0.30;;;0.30;;
15667;SDS011;7934;48.710;9.024;2023-05-10T00:20:23;0.00;;;0.00;;
15667;SDS011;7934;48.710;9.024;2023-05-10T00:22:51;0.00;;;0.00;;
15667;SDS011;7934;48.710;9.024;2023-05-10T00:25:18;0.00;;;0.00;;
15667;SDS011;7934;48.710;9.024;2023-05-10T00:27:46;0.00;;;0.00;;
15667;SDS011;7934;48.710;9.024;2023-05-10T00:30:13;0.00;;;0.00;;
15667;SDS011;7934;48.710;9.024;2023-05-10T00:32:42;0.00;;;0.00;;
15667;SDS011;7934;48.710;9.024;2023-05-10T00:35:09;0.00;;;0.00;;
15667;SDS011;7934;48.710;9.024;2023-05-10T00:37:37;0.00;;;0.00;;
15667;SDS011;7934;48.710;9.024;2023-05-10T00:40:05;0.00;;;0.00;;
15667;SDS011;7934;48.710;9.024;2023-05-10T00:42:32;0.10;;;0.10;;
15667;SDS011;7934;48.710;9.024;2023-05-10T00:44:59;0.00;;;0.00;;
15667;SDS011;7934;48.710;9.024;2023-05-10T00:47:27;0.00;;;0.00;;
15667;SDS011;7934;48.710;9.024;2023-05-10T00:49:56;0.00;;;0.00;;
15667;SDS011;7934;48.710;9.024;2023-05-10T00:52:23;0.00;;;0.00;;
15667;SDS011;7934;48.710;9.024;2023-05-10T00:54:51;0.00;;;0.00;;
15667;SDS011;7934;48.710;9.024;2023-05-10T00:57:18;0.00;;;0.00;;
15667;SDS011;7934;48.710;9.024;2023-05-10T00:59:46;0.00;;;0.00;;
15667;SDS011;7934;48.710;9.024;2023-05-10T01:02:13;0.00;;;0.00;;
15667;SDS011;7934;48.710;9.024;2023-05-10T01:04:40;0.00;;;0.00;;
15667;SDS011;7934;48.710;9.024;2023-05-10T01:07:09;0.00;;;0.00;;
15667;SDS011;7934;48.710;9.024;2023-05-10T01:09:36;0.00;;;0.00;;
15667;SDS011;7934;48.710;9.024;2023-05-10T01:12:04;0.00;;;0.00;;
15667;SDS011;7934;48.710;9.024;2023-05-10T01:14:32;0.00;;;0.00;;
15667;SDS011;7934;48.710;9.024;2023-05-10T01:17:01;0.00;;;0.00;;
15667;SDS011;7934;48.710;9.024;2023-05-10T01:19:29;0.00;;;0.00;;
15667;SDS011;7934;48.710;9.024;2023-05-10T01:22:01;0.00;;;0.00;;
15667;SDS011;7934;48.710;9.024;2023-05-10T01:32:54;0.00;;;0.00;;
15667;SDS011;7934;48.710;9.024;2023-05-10T01:35:23;0.00;;;0.00;;
15667;SDS011;7934;48.710;9.024;2023-05-10T01:37:56;0.00;;;0.00;;
15667;SDS011;7934;48.710;9.024;2023-05-10T01:40:26;0.00;;;0.00;;
15667;SDS011;7934;48.710;9.024;2023-05-10T01:42:58;0.00;;;0.00;;
15667;SDS011;7934;48.710;9.024;2023-05-10T01:45:27;1.43;;;0.83;;
15667;SDS011;7934;48.710;9.024;2023-05-10T01:48:01;3.30;;;0.83;;
15667;SDS011;7934;48.710;9.024;2023-05-10T01:50:30;0.00;;;0.00;;
15667;SDS011;7934;48.710;9.024;2023-05-10T01:52:59;0.83;;;0.60;;
15667;SDS011;7934;48.710;9.024;2023-05-10T01:55:28;0.00;;;0.00;;
15667;SDS011;7934;48.710;9.024;2023-05-10T01:57:59;0.00;;;0.00;;
15667;SDS011;7934;48.710;9.024;2023-05-10T02:00:27;0.00;;;0.00;;
15667;SDS011;7934;48.710;9.024;2023-05-10T02:02:56;0.00;;;0.00;;
15667;SDS011;7934;48.710;9.024;2023-05-10T02:05:25;0.00;;;0.00;;
15667;SDS011;7934;48.710;9.024;2023-05-10T02:07:54;0.00;;;0.00;;
15667;SDS011;7934;48.710;9.024;2023-05-10T02:10:22;0.00;;;0.00;;
15667;SDS011;7934;48.710;9.024;2023-05-10T02:12:49;0.00;;;0.00;;
15667;SDS011;7934;48.710;9.024;2023-05-10T02:15:20;0.00;;;0.00;;
15667;SDS011;7934;48.710;9.024;2023-05-10T02:17:49;0.00;;;0.00;;
15667;SDS011;7934;48.710;9.024;2023-05-10T02:20:17;0.00;;;0.00;;
15667;SDS011;7934;48.710;9.024;2023-05-10T02:22:50;0.00;;;0.00;;
15667;SDS011;7934;48.710;9.024;2023-05-10T02:25:23;0.00;;;0.00;;
15667;SDS011;7934;48.710;9.024;2023-05-10T02:27:50;0.00;;;0.00;;
15667;SDS011;7934;48.710;9.024;2023-05-10T02:30:18;0.00;;;0.00;;
15667;SDS011;7934;48.710;9.024;2023-05-10T02:32:49;0.00;;;0.00;;
15667;SDS011;7934;48.710;9.024;2023-05-10T02:35:17;0.00;;;0.00;;
15667;SDS011;7934;48.710;9.024;2023-05-10T02:37:47;0.00;;;0.00;;
15667;SDS011;7934;48.710;9.024;2023-05-10T02:40:16;0.00;;;0.00;;
15667;SDS011;7934;48.710;9.024;2023-05-10T02:42:45;0.00;;;0.00;;
15667;SDS011;7934;48.710;9.024;2023-05-10T02:45:15;0.00;;;0.00;;
15667;SDS011;7934;48.710;9.024;2023-05-10T02:47:43;0.00;;;0.00;;
15667;SDS011;7934;48.710;9.024;2023-05-10T02:50:11;0.00;;;0.00;;
15667;SDS011;7934;48.710;9.024;2023-05-10T02:52:39;0.10;;;0.10;;
15667;SDS011;7934;48.710;9.024;2023-05-10T02:55:07;0.00;;;0.00;;
15667;SDS011;7934;48.710;9.024;2023-05-10T02:57:38;0.00;;;0.00;;
15667;SDS011;7934;48.710;9.024;2023-05-10T03:00:07;0.00;;;0.00;;
15667;SDS011;7934;48.710;9.024;2023-05-10T03:02:36;0.00;;;0.00;;
15667;SDS011;7934;48.710;9.024;2023-05-10T03:05:04;0.07;;;0.07;;
15667;SDS011;7934;48.710;9.024;2023-05-10T03:07:31;0.10;;;0.10;;
15667;SDS011;7934;48.710;9.024;2023-05-10T03:09:59;0.03;;;0.03;;
15667;SDS011;7934;48.710;9.024;2023-05-10T03:12:28;0.00;;;0.00;;
15667;SDS011;7934;48.710;9.024;2023-05-10T03:15:00;0.00;;;0.00;;
15667;SDS011;7934;48.710;9.024;2023-05-10T03:17:29;0.00;;;0.00;;
15667;SDS011;7934;48.710;9.024;2023-05-10T03:19:58;0.00;;;0.00;;
15667;SDS011;7934;48.710;9.024;2023-05-10T03:22:26;0.30;;;0.30;;
15667;SDS011;7934;48.710;9.024;2023-05-10T03:24:58;0.00;;;0.00;;
15667;SDS011;7934;48.710;9.024;2023-05-10T03:27:27;0.00;;;0.00;;
15667;SDS011;7934;48.710;9.024;2023-05-10T03:29:54;0.00;;;0.00;;
15667;SDS011;7934;48.710;9.024;2023-05-10T03:32:23;0.00;;;0.00;;
15667;SDS011;7934;48.710;9.024;2023-05-10T03:34:52;0.00;;;0.00;;
15667;SDS011;7934;48.710;9.024;2023-05-10T03:37:19;0.00;;;0.00;;
15667;SDS011;7934;48.710;9.024;2023-05-10T03:39:46;1.20;;;0.10;;
15667;SDS011;7934;48.710;9.024;2023-05-10T03:42:13;0.00;;;0.00;;
15667;SDS011;7934;48.710;9.024;2023-05-10T03:44:42;0.00;;;0.00;;
15667;SDS011;7934;48.710;9.024;2023-05-10T03:47:10;0.00;;;0.00;;
15667;SDS011;7934;48.710;9.024;2023-05-10T03:49:38;0.00;;;0.00;;
15667;SDS011;7934;48.710;9.024;2023-05-10T03:52:05;0.57;;;0.57;;
15667;SDS011;7934;48.710;9.024;2023-05-10T03:54:33;0.00;;;0.00;;
15667;SDS011;7934;48.710;9.024;2023-05-10T03:57:00;0.10;;;0.10;;
15667;SDS011;7934;48.710;9.024;2023-05-10T03:59:27;1.93;;;0.67;;
15667;SDS011;7934;48.710;9.024;2023-05-10T04:01:55;0.00;;;0.00;;
15667;SDS011;7934;48.710;9.024;2023-05-10T04:04:22;0.00;;;0.00;;
15667;SDS011;7934;48.710;9.024;2023-05-10T04:06:50;0.00;;;0.00;;
15667;SDS011;7934;48.710;9.024;2023-05-10T04:09:17;0.00;;;0.00;;
15667;SDS011;7934;48.710;9.024;2023-05-10T04:11:45;0.00;;;0.00;;
15667;SDS011;7934;48.710;9.024;2023-05-10T04:14:12;0.60;;;0.60;;
15667;SDS011;7934;48.710;9.024;2023-05-10T04:16:41;0.10;;;0.10;;
15667;SDS011;7934;48.710;9.024;2023-05-10T04:19:08;0.00;;;0.00;;
15667;SDS011;7934;48.710;9.024;2023-05-10T04:21:36;0.00;;;0.00;;
15667;SDS011;7934;48.710;9.024;2023-05-10T04:24:04;0.00;;;0.00;;
15667;SDS011;7934;48.710;9.024;2023-05-10T04:26:32;0.00;;;0.00;;
15667;SDS011;7934;48.710;9.024;2023-05-10T04:28:59;0.00;;;0.00;;
15667;SDS011;7934;48.710;9.024;2023-05-10T04:31:26;0.03;;;0.03;;
15667;SDS011;7934;48.710;9.024;2023-05-10T04:33:54;0.00;;;0.00;;
15667;SDS011;7934;48.710;9.024;2023-05-10T04:36:21;0.00;;;0.00;;
15667;SDS011;7934;48.710;9.024;2023-05-10T04:38:48;0.00;;;0.00;;
15667;SDS011;7934;48.710;9.024;2023-05-10T04:41:17;0.00;;;0.00;;
15667;SDS011;7934;48.710;9.024;2023-05-10T04:43:45;0.00;;;0.00;;
15667;SDS011;7934;48.710;9.024;2023-05-10T04:46:14;0.00;;;0.00;;
15667;SDS011;7934;48.710;9.024;2023-05-10T04:48:41;0.00;;;0.00;;
15667;SDS011;7934;48.710;9.024;2023-05-10T04:51:08;0.10;;;0.10;;
15667;SDS011;7934;48.710;9.024;2023-05-10T04:53:36;0.10;;;0.10;;
15667;SDS011;7934;48.710;9.024;2023-05-10T04:56:03;0.00;;;0.00;;
15667;SDS011;7934;48.710;9.024;2023-05-10T04:58:31;0.00;;;0.00;;
15667;SDS011;7934;48.710;9.024;2023-05-10T05:01:04;0.00;;;0.00;;
15667;SDS011;7934;48.710;9.024;2023-05-10T05:03:32;0.00;;;0.00;;
15667;SDS011;7934;48.710;9.024;2023-05-10T05:06:01;0.00;;;0.00;;
15667;SDS011;7934;48.710;9.024;2023-05-10T05:08:42;0.00;;;0.00;;
15667;SDS011;7934;48.710;9.024;2023-05-10T05:11:11;0.00;;;0.00;;
15667;SDS011;7934;48.710;9.024;2023-05-10T05:13:42;0.10;;;0.10;;
15667;SDS011;7934;48.710;9.024;2023-05-10T05:16:09;0.20;;;0.20;;
15667;SDS011;7934;48.710;9.024;2023-05-10T05:18:36;0.00;;;0.00;;
15667;SDS011;7934;48.710;9.024;2023-05-10T05:21:12;0.00;;;0.00;;
15667;SDS011;7934;48.710;9.024;2023-05-10T05:23:40;0.00;;;0.00;;
15667;SDS011;7934;48.710;9.024;2023-05-10T05:26:07;0.00;;;0.00;;
15667;SDS011;7934;48.710;9.024;2023-05-10T05:28:47;0.00;;;0.00;;
15667;SDS011;7934;48.710;9.024;2023-05-10T05:31:17;0.10;;;0.10;;
15667;SDS011;7934;48.710;9.024;2023-05-10T05:33:44;0.00;;;0.00;;
15667;SDS011;7934;48.710;9.024;2023-05-10T05:36:11;0.00;;;0.00;;
15667;SDS011;7934;48.710;9.024;2023-05-10T05:38:39;0.00;;;0.00;;
15667;SDS011;7934;48.710;9.024;2023-05-10T05:41:06;0.00;;;0.00;;
15667;SDS011;7934;48.710;9.024;2023-05-10T05:43:36;0.10;;;0.10;;
15667;SDS011;7934;48.710;9.024;2023-05-10T05:46:04;1.03;;;0.40;;
15667;SDS011;7934;48.710;9.024;2023-05-10T05:48:31;0.00;;;0.00;;
15667;SDS011;7934;48.710;9.024;2023-05-10T05:50:59;0.10;;;0.10;;
15667;SDS011;7934;48.710;9.024;2023-05-10T05:53:26;0.10;;;0.10;;
15667;SDS011;7934;48.710;9.024;2023-05-10T05:55:54;0.00;;;0.00;;
15667;SDS011;7934;48.710;9.024;2023-05-10T05:58:22;0.10;;;0.10;;
15667;SDS011;7934;48.710;9.024;2023-05-10T06:00:49;0.77;;;0.50;;
15667;SDS011;7934;48.710;9.024;2023-05-10T06:03:18;0.10;;;0.10;;
15667;SDS011;7934;48.710;9.024;2023-05-10T06:05:45;0.30;;;0.30;;
15667;SDS011;7934;48.710;9.024;2023-05-10T06:08:14;0.53;;;0.47;;
15667;SDS011;7934;48.710;9.024;2023-05-10T06:10:41;0.10;;;0.10;;
15667;SDS011;7934;48.710;9.024;2023-05-10T06:13:08;0.17;;;0.17;;
15667;SDS011;7934;48.710;9.024;2023-05-10T06:15:35;0.07;;;0.07;;
15667;SDS011;7934;48.710;9.024;2023-05-10T06:18:03;0.00;;;0.00;;
15667;SDS011;7934;48.710;9.024;2023-05-10T06:20:31;0.67;;;0.30;;
15667;SDS011;7934;48.710;9.024;2023-05-10T06:23:03;0.03;;;0.03;;
15667;SDS011;7934;48.710;9.024;2023-05-10T06:25:30;0.00;;;0.00;;
15667;SDS011;7934;48.710;9.024;2023-05-10T06:27:57;0.00;;;0.00;;
15667;SDS011;7934;48.710;9.024;2023-05-10T06:30:25;0.00;;;0.00;;
15667;SDS011;7934;48.710;9.024;2023-05-10T06:32:53;0.20;;;0.10;;
15667;SDS011;7934;48.710;9.024;2023-05-10T06:35:21;0.00;;;0.00;;
15667;SDS011;7934;48.710;9.024;2023-05-10T06:37:49;0.37;;;0.37;;
15667;SDS011;7934;48.710;9.024;2023-05-10T06:40:17;0.23;;;0.23;;
15667;SDS011;7934;48.710;9.024;2023-05-10T06:42:44;0.20;;;0.20;;
15667;SDS011;7934;48.710;9.024;2023-05-10T06:45:11;0.47;;;0.20;;
15667;SDS011;7934;48.710;9.024;2023-05-10T06:47:39;0.30;;;0.30;;
15667;SDS011;7934;48.710;9.024;2023-05-10T06:50:06;0.00;;;0.00;;
15667;SDS011;7934;48.710;9.024;2023-05-10T06:52:34;0.33;;;0.30;;
15667;SDS011;7934;48.710;9.024;2023-05-10T06:55:03;0.00;;;0.00;;
15667;SDS011;7934;48.710;9.024;2023-05-10T06:57:30;0.07;;;0.07;;
15667;SDS011;7934;48.710;9.024;2023-05-10T06:59:57;0.00;;;0.00;;
15667;SDS011;7934;48.710;9.024;2023-05-10T07:02:25;5.23;;;2.23;;
15667;SDS011;7934;48.710;9.024;2023-05-10T07:04:52;3.30;;;2.60;;
15667;SDS011;7934;48.710;9.024;2023-05-10T07:07:19;2.13;;;2.03;;
15667;SDS011;7934;48.710;9.024;2023-05-10T07:09:46;1.57;;;1.57;;
15667;SDS011;7934;48.710;9.024;2023-05-10T07:12:16;1.80;;;1.40;;
15667;SDS011;7934;48.710;9.024;2023-05-10T07:14:45;1.90;;;1.50;;
15667;SDS011;7934;48.710;9.024;2023-05-10T07:17:12;4.20;;;1.73;;
15667;SDS011;7934;48.710;9.024;2023-05-10T07:19:40;3.03;;;1.40;;
15667;SDS011;7934;48.710;9.024;2023-05-10T07:22:07;4.33;;;1.33;;
15667;SDS011;7934;48.710;9.024;2023-05-10T07:24:35;1.10;;;1.10;;
15667;SDS011;7934;48.710;9.024;2023-05-10T07:27:02;5.40;;;1.20;;
15667;SDS011;7934;48.710;9.024;2023-05-10T07:29:31;1.10;;;1.10;;
15667;SDS011;7934;48.710;9.024;2023-05-10T07:31:58;1.43;;;1.33;;
15667;SDS011;7934;48.710;9.024;2023-05-10T07:34:26;1.70;;;1.00;;
15667;SDS011;7934;48.710;9.024;2023-05-10T07:36:56;1.20;;;1.20;;
15667;SDS011;7934;48.710;9.024;2023-05-10T07:39:23;1.17;;;1.17;;
15667;SDS011;7934;48.710;9.024;2023-05-10T07:41:51;1.30;;;1.20;;
15667;SDS011;7934;48.710;9.024;2023-05-10T07:44:18;2.50;;;1.10;;
15667;SDS011;7934;48.710;9.024;2023-05-10T07:46:47;1.10;;;1.10;;
15667;SDS011;7934;48.710;9.024;2023-05-10T07:49:14;1.23;;;1.00;;
15667;SDS011;7934;48.710;9.024;2023-05-10T07:51:41;1.07;;;1.07;;
15667;SDS011;7934;48.710;9.024;2023-05-10T07:54:12;1.53;;;0.97;;
15667;SDS011;7934;48.710;9.024;2023-05-10T07:56:40;0.90;;;0.90;;
15667;SDS011;7934;48.710;9.024;2023-05-10T07:59:14;1.40;;;0.80;;
15667;SDS011;7934;48.710;9.024;2023-05-10T08:01:43;2.53;;;1.00;;
15667;SDS011;7934;48.710;9.024;2023-05-10T08:04:11;3.63;;;0.87;;
15667;SDS011;7934;48.710;9.024;2023-05-10T08:06:39;1.07;;;1.00;;
15667;SDS011;7934;48.710;9.024;2023-05-10T08:09:06;1.27;;;0.97;;
15667;SDS011;7934;48.710;9.024;2023-05-10T08:11:33;3.00;;;0.97;;
15667;SDS011;7934;48.710;9.024;2023-05-10T08:14:01;1.37;;;0.80;;
15667;SDS011;7934;48.710;9.024;2023-05-10T08:16:28;0.70;;;0.70;;
15667;SDS011;7934;48.710;9.024;2023-05-10T08:18:55;0.90;;;0.90;;
15667;SDS011;7934;48.710;9.024;2023-05-10T08:21:24;0.77;;;0.77;;
15667;SDS011;7934;48.710;9.024;2023-05-10T08:23:51;0.77;;;0.77;;
15667;SDS011;7934;48.710;9.024;2023-05-10T08:26:19;1.00;;;0.90;;
15667;SDS011;7934;48.710;9.024;2023-05-10T08:28:47;1.37;;;0.70;;
15667;SDS011;7934;48.710;9.024;2023-05-10T08:31:14;1.00;;;0.87;;
15667;SDS011;7934;48.710;9.024;2023-05-10T08:33:44;0.97;;;0.90;;
15667;SDS011;7934;48.710;9.024;2023-05-10T08:36:11;0.60;;;0.60;;
15667;SDS011;7934;48.710;9.024;2023-05-10T08:38:46;1.70;;;0.90;;
15667;SDS011;7934;48.710;9.024;2023-05-10T08:41:13;0.50;;;0.50;;
15667;SDS011;7934;48.710;9.024;2023-05-10T08:43:40;1.60;;;0.80;;
15667;SDS011;7934;48.710;9.024;2023-05-10T08:46:11;0.47;;;0.47;;
15667;SDS011;7934;48.710;9.024;2023-05-10T08:48:42;1.50;;;0.77;;
15667;SDS011;7934;48.710;9.024;2023-05-10T08:51:10;2.47;;;0.60;;
15667;SDS011;7934;48.710;9.024;2023-05-10T08:53:39;2.30;;;1.10;;
15667;SDS011;7934;48.710;9.024;2023-05-10T08:56:08;0.70;;;0.70;;
15667;SDS011;7934;48.710;9.024;2023-05-10T08:58:36;2.13;;;0.90;;
15667;SDS011;7934;48.710;9.024;2023-05-10T09:01:03;0.50;;;0.50;;
15667;SDS011;7934;48.710;9.024;2023-05-10T09:03:31;2.00;;;0.67;;
15667;SDS011;7934;48.710;9.024;2023-05-10T09:05:58;0.60;;;0.60;;
15667;SDS011;7934;48.710;9.024;2023-05-10T09:08:26;1.47;;;0.60;;
15667;SDS011;7934;48.710;9.024;2023-05-10T09:10:54;0.30;;;0.30;;
15667;SDS011;7934;48.710;9.024;2023-05-10T09:13:23;0.60;;;0.57;;
15667;SDS011;7934;48.710;9.024;2023-05-10T09:15:51;0.50;;;0.50;;
15667;SDS011;7934;48.710;9.024;2023-05-10T09:18:18;0.60;;;0.60;;
15667;SDS011;7934;48.710;9.024;2023-05-10T09:20:46;1.80;;;0.60;;
15667;SDS011;7934;48.710;9.024;2023-05-10T09:23:13;0.40;;;0.40;;
15667;SDS011;7934;48.710;9.024;2023-05-10T09:25:41;1.73;;;0.50;;
15667;SDS011;7934;48.710;9.024;2023-05-10T09:28:08;0.63;;;0.63;;
15667;SDS011;7934;48.710;9.024;2023-05-10T09:30:37;2.57;;;0.60;;
15667;SDS011;7934;48.710;9.024;2023-05-10T09:33:05;0.50;;;0.50;;
15667;SDS011;7934;48.710;9.024;2023-05-10T09:35:33;0.50;;;0.43;;
15667;SDS011;7934;48.710;9.024;2023-05-10T09:38:01;0.90;;;0.60;;
15667;SDS011;7934;48.710;9.024;2023-05-10T09:40:30;1.07;;;0.47;;
15667;SDS011;7934;48.710;9.024;2023-05-10T09:42:57;3.57;;;0.73;;
15667;SDS011;7934;48.710;9.024;2023-05-10T09:45:26;0.60;;;0.60;;
15667;SDS011;7934;48.710;9.024;2023-05-10T09:47:54;1.60;;;0.40;;
15667;SDS011;7934;48.710;9.024;2023-05-10T09:50:22;1.70;;;0.70;;
15667;SDS011;7934;48.710;9.024;2023-05-10T09:52:50;0.97;;;0.40;;
15667;SDS011;7934;48.710;9.024;2023-05-10T09:55:18;0.40;;;0.40;;
15667;SDS011;7934;48.710;9.024;2023-05-10T09:57:49;0.40;;;0.40;;
15667;SDS011;7934;48.710;9.024;2023-05-10T10:00:17;0.70;;;0.50;;
15667;SDS011;7934;48.710;9.024;2023-05-10T10:02:45;0.50;;;0.50;;
15667;SDS011;7934;48.710;9.024;2023-05-10T10:05:14;0.30;;;0.30;;
15667;SDS011;7934;48.710;9.024;2023-05-10T10:07:42;0.50;;;0.50;;
15667;SDS011;7934;48.710;9.024;2023-05-10T10:10:09;0.37;;;0.33;;
15667;SDS011;7934;48.710;9.024;2023-05-10T10:12:40;0.63;;;0.60;;
15667;SDS011;7934;48.710;9.024;2023-05-10T10:15:08;2.50;;;0.40;;
15667;SDS011;7934;48.710;9.024;2023-05-10T10:17:35;1.63;;;0.60;;
15667;SDS011;7934;48.710;9.024;2023-05-10T10:20:04;0.77;;;0.30;;
15667;SDS011;7934;48.710;9.024;2023-05-10T10:22:33;1.33;;;1.07;;
15667;SDS011;7934;48.710;9.024;2023-05-10T10:25:00;1.00;;;0.60;;
15667;SDS011;7934;48.710;9.024;2023-05-10T10:27:28;0.50;;;0.50;;
15667;SDS011;7934;48.710;9.024;2023-05-10T10:30:03;0.50;;;0.50;;
15667;SDS011;7934;48.710;9.024;2023-05-10T10:32:33;0.80;;;0.80;;
15667;SDS011;7934;48.710;9.024;2023-05-10T10:35:02;0.40;;;0.40;;
15667;SDS011;7934;48.710;9.024;2023-05-10T10:37:47;0.40;;;0.40;;
15667;SDS011;7934;48.710;9.024;2023-05-10T10:40:24;1.70;;;0.40;;
15667;SDS011;7934;48.710;9.024;2023-05-10T10:42:52;2.67;;;0.90;;
15667;SDS011;7934;48.710;9.024;2023-05-10T10:45:19;1.23;;;0.63;;
15667;SDS011;7934;48.710;9.024;2023-05-10T10:47:47;1.27;;;0.50;;
15667;SDS011;7934;48.710;9.024;2023-05-10T10:50:14;1.90;;;0.57;;
15667;SDS011;7934;48.710;9.024;2023-05-10T10:52:42;4.23;;;0.70;;
15667;SDS011;7934;48.710;9.024;2023-05-10T10:55:11;2.17;;;0.63;;
15667;SDS011;7934;48.710;9.024;2023-05-10T10:57:43;2.57;;;0.40;;
15667;SDS011;7934;48.710;9.024;2023-05-10T11:00:20;0.60;;;0.50;;
15667;SDS011;7934;48.710;9.024;2023-05-10T11:02:49;2.93;;;0.67;;
15667;SDS011;7934;48.710;9.024;2023-05-10T11:05:33;2.17;;;0.57;;
15667;SDS011;7934;48.710;9.024;2023-05-10T11:08:00;0.60;;;0.60;;
15667;SDS011;7934;48.710;9.024;2023-05-10T11:10:34;0.90;;;0.50;;
15667;SDS011;7934;48.710;9.024;2023-05-10T11:13:02;1.43;;;0.70;;
15667;SDS011;7934;48.710;9.024;2023-05-10T11:15:30;0.43;;;0.37;;
15667;SDS011;7934;48.710;9.024;2023-05-10T11:17:58;1.80;;;0.50;;
15667;SDS011;7934;48.710;9.024;2023-05-10T11:20:27;1.40;;;0.73;;
15667;SDS011;7934;48.710;9.024;2023-05-10T11:23:10;1.17;;;0.60;;
15667;SDS011;7934;48.710;9.024;2023-05-10T11:25:42;1.10;;;0.60;;
15667;SDS011;7934;48.710;9.024;2023-05-10T11:28:10;0.87;;;0.60;;
15667;SDS011;7934;48.710;9.024;2023-05-10T11:30:37;1.13;;;0.97;;
15667;SDS011;7934;48.710;9.024;2023-05-10T11:33:05;2.00;;;0.90;;
15667;SDS011;7934;48.710;9.024;2023-05-10T11:35:36;0.63;;;0.63;;
15667;SDS011;7934;48.710;9.024;2023-05-10T11:38:05;1.07;;;0.80;;
15667;SDS011;7934;48.710;9.024;2023-05-10T11:40:32;1.20;;;0.93;;
15667;SDS011;7934;48.710;9.024;2023-05-10T11:43:01;0.80;;;0.60;;
15667;SDS011;7934;48.710;9.024;2023-05-10T11:45:28;0.60;;;0.60;;
15667;SDS011;7934;48.710;9.024;2023-05-10T11:48:05;0.97;;;0.60;;
15667;SDS011;7934;48.710;9.024;2023-05-10T11:50:38;0.97;;;0.80;;
15667;SDS011;7934;48.710;9.024;2023-05-10T11:53:05;2.63;;;1.00;;
15667;SDS011;7934;48.710;9.024;2023-05-10T11:55:33;0.90;;;0.90;;
15667;SDS011;7934;48.710;9.024;2023-05-10T11:58:02;3.60;;;0.60;;
15667;SDS011;7934;48.710;9.024;2023-05-10T12:00:29;0.77;;;0.77;;
15667;SDS011;7934;48.710;9.024;2023-05-10T12:02:56;2.43;;;1.17;;
15667;SDS011;7934;48.710;9.024;2023-05-10T12:05:27;1.13;;;0.67;;
15667;SDS011;7934;48.710;9.024;2023-05-10T12:10:36;0.63;;;0.63;;
15667;SDS011;7934;48.710;9.024;2023-05-10T12:13:05;1.47;;;0.70;;
15667;SDS011;7934;48.710;9.024;2023-05-10T12:15:34;1.90;;;0.93;;
15667;SDS011;7934;48.710;9.024;2023-05-10T12:18:01;2.23;;;1.03;;
15667;SDS011;7934;48.710;9.024;2023-05-10T12:20:28;0.60;;;0.60;;
15667;SDS011;7934;48.710;9.024;2023-05-10T12:22:57;1.73;;;0.80;;
15667;SDS011;7934;48.710;9.024;2023-05-10T12:25:29;2.33;;;1.00;;
15667;SDS011;7934;48.710;9.024;2023-05-10T12:27:57;0.90;;;0.90;;
15667;SDS011;7934;48.710;9.024;2023-05-10T12:30:27;0.80;;;0.80;;
15667;SDS011;7934;48.710;9.024;2023-05-10T12:32:59;1.43;;;0.87;;
15667;SDS011;7934;48.710;9.024;2023-05-10T12:35:27;0.98;;;0.93;;
15667;SDS011;7934;48.710;9.024;2023-05-10T12:37:58;1.97;;;1.00;;
15667;SDS011;7934;48.710;9.024;2023-05-10T12:40:28;1.75;;;1.00;;
15667;SDS011;7934;48.710;9.024;2023-05-10T12:43:00;1.80;;;0.80;;
15667;SDS011;7934;48.710;9.024;2023-05-10T12:45:29;1.30;;;0.90;;
15667;SDS011;7934;48.710;9.024;2023-05-10T12:47:56;3.00;;;1.03;;
15667;SDS011;7934;48.710;9.024;2023-05-10T12:50:23;0.97;;;0.70;;
15667;SDS011;7934;48.710;9.024;2023-05-10T12:52:50;1.40;;;0.90;;
15667;SDS011;7934;48.710;9.024;2023-05-10T12:55:18;1.90;;;1.10;;
15667;SDS011;7934;48.710;9.024;2023-05-10T12:57:45;1.63;;;1.03;;
15667;SDS011;7934;48.710;9.024;2023-05-10T13:00:19;2.03;;;0.73;;
15667;SDS011;7934;48.710;9.024;2023-05-10T13:02:48;1.60;;;1.13;;
15667;SDS011;7934;48.710;9.024;2023-05-10T13:05:15;1.00;;;1.00;;
15667;SDS011;7934;48.710;9.024;2023-05-10T13:07:42;0.80;;;0.80;;
15667;SDS011;7934;48.710;9.024;2023-05-10T13:10:13;2.07;;;1.10;;
15667;SDS011;7934;48.710;9.024;2023-05-10T13:12:40;3.73;;;1.00;;
15667;SDS011;7934;48.710;9.024;2023-05-10T13:15:07;0.83;;;0.70;;
15667;SDS011;7934;48.710;9.024;2023-05-10T13:17:35;1.80;;;0.70;;
15667;SDS011;7934;48.710;9.024;2023-05-10T13:20:05;3.80;;;0.80;;
15667;SDS011;7934;48.710;9.024;2023-05-10T13:22:33;0.70;;;0.60;;
15667;SDS011;7934;48.710;9.024;2023-05-10T13:25:00;3.00;;;0.90;;
15667;SDS011;7934;48.710;9.024;2023-05-10T13:27:29;1.57;;;0.80;;
15667;SDS011;7934;48.710;9.024;2023-05-10T13:29:57;1.47;;;1.10;;
15667;SDS011;7934;48.710;9.024;2023-05-10T13:32:24;0.90;;;0.80;;
15667;SDS011;7934;48.710;9.024;2023-05-10T13:34:51;2.23;;;1.00;;
15667;SDS011;7934;48.710;9.024;2023-05-10T13:37:22;0.87;;;0.87;;
15667;SDS011;7934;48.710;9.024;2023-05-10T13:39:49;1.53;;;1.10;;
15667;SDS011;7934;48.710;9.024;2023-05-10T13:42:16;2.27;;;1.00;;
15667;SDS011;7934;48.710;9.024;2023-05-10T13:44:44;0.83;;;0.83;;
15667;SDS011;7934;48.710;9.024;2023-05-10T13:47:11;1.00;;;1.00;;
15667;SDS011;7934;48.710;9.024;2023-05-10T13:49:39;2.57;;;1.17;;
15667;SDS011;7934;48.710;9.024;2023-05-10T13:52:06;1.20;;;0.80;;
15667;SDS011;7934;48.710;9.024;2023-05-10T13:54:39;2.60;;;1.00;;
15667;SDS011;7934;48.710;9.024;2023-05-10T13:57:17;1.07;;;0.90;;
15667;SDS011;7934;48.710;9.024;2023-05-10T13:59:44;2.40;;;0.77;;
15667;SDS011;7934;48.710;9.024;2023-05-10T14:02:11;0.93;;;0.70;;
15667;SDS011;7934;48.710;9.024;2023-05-10T14:04:39;2.60;;;1.00;;
15667;SDS011;7934;48.710;9.024;2023-05-10T14:07:06;1.40;;;0.93;;
15667;SDS011;7934;48.710;9.024;2023-05-10T14:09:35;1.40;;;0.90;;
15667;SDS011;7934;48.710;9.024;2023-05-10T14:12:04;0.73;;;0.70;;
15667;SDS011;7934;48.710;9.024;2023-05-10T14:14:32;2.60;;;0.90;;
15667;SDS011;7934;48.710;9.024;2023-05-10T14:17:00;3.17;;;0.90;;
15667;SDS011;7934;48.710;9.024;2023-05-10T14:19:27;1.33;;;0.80;;
15667;SDS011;7934;48.710;9.024;2023-05-10T14:21:59;1.20;;;0.80;;
15667;SDS011;7934;48.710;9.024;2023-05-10T14:24:26;0.90;;;0.90;;
15667;SDS011;7934;48.710;9.024;2023-05-10T14:26:53;1.23;;;0.63;;
15667;SDS011;7934;48.710;9.024;2023-05-10T14:29:22;1.03;;;0.67;;
15667;SDS011;7934;48.710;9.024;2023-05-10T14:31:49;0.80;;;0.80;;
15667;SDS011;7934;48.710;9.024;2023-05-10T14:34:17;2.93;;;1.10;;
15667;SDS011;7934;48.710;9.024;2023-05-10T14:36:47;1.30;;;0.90;;
15667;SDS011;7934;48.710;9.024;2023-05-10T14:39:14;1.17;;;0.87;;
15667;SDS011;7934;48.710;9.024;2023-05-10T14:41:42;0.97;;;0.70;;
15667;SDS011;7934;48.710;9.024;2023-05-10T14:44:10;1.17;;;0.70;;
15667;SDS011;7934;48.710;9.024;2023-05-10T14:46:39;0.60;;;0.60;;
15667;SDS011;7934;48.710;9.024;2023-05-10T14:49:07;1.17;;;1.00;;
15667;SDS011;7934;48.710;9.024;2023-05-10T14:51:34;1.83;;;0.80;;
15667;SDS011;7934;48.710;9.024;2023-05-10T14:54:01;0.97;;;0.80;;
15667;SDS011;7934;48.710;9.024;2023-05-10T14:56:29;2.30;;;0.77;;
15667;SDS011;7934;48.710;9.024;2023-05-10T14:58:56;2.27;;;1.00;;
15667;SDS011;7934;48.710;9.024;2023-05-10T15:01:24;1.87;;;0.80;;
15667;SDS011;7934;48.710;9.024;2023-05-10T15:03:52;2.20;;;1.27;;
15667;SDS011;7934;48.710;9.024;2023-05-10T15:06:22;1.33;;;0.80;;
15667;SDS011;7934;48.710;9.024;2023-05-10T15:08:50;0.87;;;0.77;;
15667;SDS011;7934;48.710;9.024;2023-05-10T15:11:18;1.40;;;0.90;;
15667;SDS011;7934;48.710;9.024;2023-05-10T15:13:45;0.60;;;0.60;;
15667;SDS011;7934;48.710;9.024;2023-05-10T15:16:12;1.90;;;0.73;;
15667;SDS011;7934;48.710;9.024;2023-05-10T15:18:39;2.80;;;0.80;;